createdAt,value
2022-12-12T00:08:01.787Z,6.81
2022-12-12T00:28:07.561Z,7.64
2022-12-12T00:48:13.374Z,7.58
2022-12-12T01:08:19.225Z,8.49
2022-12-12T01:28:24.882Z,8.73
2022-12-12T01:48:30.658Z,10.15
2022-12-12T02:08:36.479Z,9.63
2022-12-12T02:28:42.236Z,10.16
2022-12-12T02:48:48.035Z,10.80
2022-12-12T03:08:53.826Z,11.01
2022-12-12T03:28:59.625Z,10.91
2022-12-12T03:49:05.372Z,11.86
2022-12-12T04:09:11.076Z,11.13
2022-12-12T04:29:16.864Z,12.98
2022-12-12T04:49:22.615Z,11.24
2022-12-12T05:09:28.388Z,12.82
2022-12-12T05:29:34.197Z,12.26
2022-12-12T05:49:39.973Z,11.73
2022-12-12T06:09:45.819Z,10.51
2022-12-12T06:29:51.570Z,10.71
2022-12-12T06:49:57.384Z,11.81
2022-12-12T07:10:03.176Z,11.14
2022-12-12T07:30:08.985Z,14.33
2022-12-12T07:50:14.809Z,14.18
2022-12-12T08:10:20.772Z,14.86
2022-12-12T08:30:26.545Z,14.42
2022-12-12T08:50:32.349Z,13.30
2022-12-12T09:10:38.165Z,12.66
2022-12-12T09:30:43.932Z,10.93
2022-12-12T09:50:49.790Z,11.31
2022-12-12T10:10:55.581Z,10.80
2022-12-12T10:31:01.338Z,7.86
2022-12-12T10:51:07.150Z,8.35
2022-12-12T11:11:12.962Z,5.26
2022-12-12T11:31:18.854Z,5.75
2022-12-12T11:51:24.619Z,5.64
2022-12-12T12:11:30.460Z,6.24
2022-12-12T12:31:36.278Z,4.84
2022-12-12T12:51:48.527Z,9.84
2022-12-12T13:11:47.799Z,5.14
2022-12-12T13:31:53.638Z,9.72
2022-12-12T13:51:59.469Z,5.18
2022-12-12T14:12:05.290Z,4.81
2022-12-12T14:32:11.129Z,4.26
2022-12-12T14:52:17.039Z,4.67
2022-12-12T15:12:22.954Z,5.12
2022-12-12T15:32:28.913Z,5.27
2022-12-12T15:52:34.648Z,6.04
2022-12-12T16:12:40.487Z,7.55
2022-12-12T16:32:46.356Z,8.94
2022-12-12T16:52:52.345Z,6.97
2022-12-12T17:12:58.399Z,6.21
2022-12-12T17:33:16.690Z,8.01
2022-12-12T17:53:12.537Z,8.86
2022-12-12T18:13:18.354Z,10.18
2022-12-12T18:33:24.192Z,13.53
2022-12-12T18:53:30.130Z,27.49
2022-12-12T19:13:38.269Z,16.30
2022-12-12T19:33:41.502Z,13.57
2022-12-12T19:53:47.272Z,15.52
2022-12-12T20:13:53.050Z,14.45
2022-12-12T20:33:58.849Z,14.98
2022-12-12T20:54:04.654Z,16.31
2022-12-12T21:14:10.457Z,18.06
2022-12-12T21:34:16.328Z,17.61
2022-12-12T21:54:22.156Z,20.37
2022-12-12T22:14:27.941Z,18.42
2022-12-12T22:34:33.790Z,18.90
2022-12-12T22:54:39.555Z,19.32
2022-12-12T23:14:45.422Z,17.07
2022-12-12T23:34:51.248Z,18.27
2022-12-12T23:54:57.083Z,17.20
